createdAt,value
2022-08-20T00:01:19.031Z,82.13
2022-08-20T00:03:50.208Z,82.07
2022-08-20T00:06:25.029Z,81.18
2022-08-20T00:08:53.326Z,82.03
2022-08-20T00:11:22.908Z,80.34
2022-08-20T00:13:57.660Z,81.50
2022-08-20T00:16:28.118Z,81.77
2022-08-20T00:18:59.604Z,80.18
2022-08-20T00:21:27.847Z,79.18
2022-08-20T00:23:56.220Z,80.73
2022-08-20T00:26:26.066Z,79.30
2022-08-20T00:28:54.581Z,80.52
2022-08-20T00:31:24.654Z,80.57
2022-08-20T00:33:54.041Z,80.80
2022-08-20T00:36:32.796Z,80.50
2022-08-20T00:39:01.192Z,80.81
2022-08-20T00:41:29.521Z,80.26
2022-08-20T00:44:07.403Z,80.42
2022-08-20T00:46:35.622Z,81.05
2022-08-20T00:49:05.938Z,80.64
2022-08-20T00:51:39.895Z,78.76
2022-08-20T00:54:12.427Z,79.98
2022-08-20T00:56:43.011Z,79.52
2022-08-20T00:59:16.457Z,79.90
2022-08-20T01:01:56.049Z,82.15
2022-08-20T01:04:26.305Z,80.28
2022-08-20T01:06:56.666Z,79.76
2022-08-20T01:09:49.411Z,81.93
2022-08-20T01:12:14.880Z,82.54
2022-08-20T01:14:46.481Z,80.93
2022-08-20T01:17:18.241Z,81.96
2022-08-20T01:19:51.214Z,81.18
2022-08-20T01:22:47.229Z,81.91
2022-08-20T01:25:22.533Z,79.02
2022-08-20T01:27:56.153Z,80.23
2022-08-20T01:30:26.142Z,78.97
2022-08-20T01:32:54.356Z,80.14
2022-08-20T01:35:23.570Z,78.79
2022-08-20T01:37:51.650Z,78.67
2022-08-20T01:40:36.714Z,79.31
2022-08-20T01:43:06.697Z,79.12
2022-08-20T01:45:36.631Z,78.81
2022-08-20T01:48:08.237Z,78.86
2022-08-20T01:50:41.596Z,78.49
2022-08-20T01:53:18.656Z,79.52
2022-08-20T01:55:46.554Z,81.21
2022-08-20T01:58:16.026Z,79.25
2022-08-20T02:00:44.181Z,80.33
2022-08-20T02:03:12.363Z,79.84
2022-08-20T02:05:40.216Z,79.86
2022-08-20T02:08:08.132Z,81.55
2022-08-20T02:10:37.009Z,80.77
2022-08-20T02:13:07.630Z,80.48
2022-08-20T02:15:37.373Z,80.31
2022-08-20T02:18:10.293Z,79.96
2022-08-20T02:20:40.268Z,78.55
2022-08-20T02:23:09.088Z,77.91
2022-08-20T02:25:40.362Z,77.04
2022-08-20T02:28:11.877Z,77.14
2022-08-20T02:30:44.721Z,76.95
2022-08-20T02:33:15.379Z,76.33
2022-08-20T02:35:46.496Z,75.69
2022-08-20T02:38:15.742Z,75.03
2022-08-20T02:40:45.165Z,76.22
2022-08-20T02:43:14.529Z,74.85
2022-08-20T02:45:45.074Z,74.23
2022-08-20T02:48:21.534Z,76.04
2022-08-20T02:50:53.061Z,76.91
2022-08-20T02:53:21.342Z,75.80
2022-08-20T02:55:49.007Z,73.53
2022-08-20T02:58:17.159Z,73.12
2022-08-20T03:00:46.895Z,73.08
2022-08-20T03:03:15.892Z,73.57
2022-08-20T03:05:45.864Z,73.86
2022-08-20T03:08:16.011Z,72.37
2022-08-20T03:10:47.115Z,72.93
2022-08-20T03:13:16.362Z,73.45
2022-08-20T03:15:48.107Z,72.53
2022-08-20T03:18:17.281Z,73.93
2022-08-20T03:20:45.994Z,74.44
2022-08-20T03:23:14.523Z,73.45
2022-08-20T03:25:42.394Z,73.22
2022-08-20T03:28:10.417Z,73.62
2022-08-20T03:30:38.893Z,74.12
2022-08-20T03:33:08.878Z,72.50
2022-08-20T03:35:37.768Z,73.47
2022-08-20T03:38:08.538Z,75.21
2022-08-20T03:40:37.878Z,74.45
2022-08-20T03:43:08.659Z,72.51
2022-08-20T03:45:37.854Z,73.17
2022-08-20T03:48:10.937Z,74.85
2022-08-20T03:50:42.633Z,73.06
2022-08-20T03:53:13.158Z,74.72
2022-08-20T03:55:45.309Z,75.06
2022-08-20T03:58:14.165Z,73.80
2022-08-20T04:00:45.694Z,73.45
2022-08-20T04:03:15.237Z,75.53
2022-08-20T04:05:44.090Z,73.63
2022-08-20T04:08:14.775Z,76.17
2022-08-20T04:10:46.572Z,75.29
2022-08-20T04:13:15.969Z,75.62
2022-08-20T04:15:46.415Z,74.82
2022-08-20T04:18:20.403Z,74.83
2022-08-20T04:20:48.932Z,73.71
2022-08-20T04:23:17.031Z,74.82
2022-08-20T04:25:46.420Z,73.73
2022-08-20T04:28:17.282Z,74.50
2022-08-20T04:30:47.431Z,75.03
2022-08-20T04:33:33.487Z,74.08
2022-08-20T04:36:05.525Z,74.01
2022-08-20T04:38:48.161Z,75.54
2022-08-20T04:41:21.096Z,73.42
2022-08-20T04:43:53.150Z,75.73
2022-08-20T04:46:23.472Z,74.31
2022-08-20T04:48:52.687Z,73.58
2022-08-20T04:51:22.965Z,73.26
2022-08-20T04:53:53.356Z,74.69
2022-08-20T04:56:23.614Z,75.44
2022-08-20T04:58:52.867Z,73.64
2022-08-20T05:01:22.218Z,73.84
2022-08-20T05:03:51.445Z,73.15
2022-08-20T05:06:20.868Z,73.62
2022-08-20T05:08:49.030Z,72.97
2022-08-20T05:11:33.018Z,73.55
2022-08-20T05:14:03.411Z,74.54
2022-08-20T05:16:37.623Z,74.04
2022-08-20T05:19:05.840Z,72.84
2022-08-20T05:21:35.486Z,72.80
2022-08-20T05:24:03.342Z,72.58
2022-08-20T05:26:31.187Z,71.97
2022-08-20T05:28:59.601Z,72.94
2022-08-20T05:31:32.066Z,72.16
2022-08-20T05:34:02.312Z,72.35
2022-08-20T05:36:30.344Z,71.79
2022-08-20T05:38:59.791Z,72.19
2022-08-20T05:41:30.598Z,72.96
2022-08-20T05:44:01.360Z,72.37
2022-08-20T05:46:31.624Z,71.58
2022-08-20T05:49:01.570Z,71.39
2022-08-20T05:51:30.906Z,71.12
2022-08-20T05:54:00.367Z,72.21
2022-08-20T05:56:33.398Z,72.06
2022-08-20T05:59:04.110Z,71.86
2022-08-20T06:01:32.942Z,71.80
2022-08-20T06:04:19.029Z,72.14
2022-08-20T06:06:47.756Z,72.33
2022-08-20T06:09:28.039Z,73.05
2022-08-20T06:12:01.940Z,72.22
2022-08-20T06:14:30.458Z,72.50
2022-08-20T06:17:04.723Z,71.65
2022-08-20T06:19:34.087Z,72.13
2022-08-20T06:22:02.461Z,72.93
2022-08-20T06:24:47.292Z,72.19
2022-08-20T06:27:17.347Z,71.80
2022-08-20T06:29:45.691Z,72.04
2022-08-20T06:32:14.133Z,72.03
2022-08-20T06:34:49.104Z,72.50
2022-08-20T06:37:21.133Z,72.21
2022-08-20T06:39:50.630Z,72.59
2022-08-20T06:44:49.808Z,72.15
2022-08-20T06:47:19.028Z,71.92
2022-08-20T06:49:47.575Z,72.28
2022-08-20T06:52:17.378Z,71.88
2022-08-20T06:54:45.499Z,71.66
2022-08-20T06:57:13.896Z,71.87
2022-08-20T06:59:42.110Z,71.95
2022-08-20T07:02:11.154Z,71.88
2022-08-20T07:04:39.353Z,71.63
2022-08-20T07:07:07.298Z,71.05
2022-08-20T07:09:35.619Z,70.66
2022-08-20T07:12:03.800Z,70.12
2022-08-20T07:14:31.473Z,70.41
2022-08-20T07:17:00.228Z,69.92
2022-08-20T07:19:29.678Z,69.15
2022-08-20T07:21:57.728Z,68.97
2022-08-20T07:24:25.626Z,69.12
2022-08-20T07:27:01.501Z,67.86
2022-08-20T07:29:49.124Z,66.39
2022-08-20T07:32:36.810Z,66.04
2022-08-20T07:35:10.928Z,69.54
2022-08-20T07:37:41.592Z,69.96
2022-08-20T07:40:14.767Z,67.86
2022-08-20T07:42:42.666Z,69.75
2022-08-20T07:45:13.468Z,67.64
2022-08-20T07:47:43.366Z,68.57
2022-08-20T07:50:15.320Z,67.89
2022-08-20T07:52:43.294Z,66.64
2022-08-20T07:55:14.766Z,66.32
2022-08-20T07:57:43.730Z,65.15
2022-08-20T08:00:14.009Z,65.06
2022-08-20T08:02:42.274Z,65.77
2022-08-20T08:05:12.717Z,65.24
2022-08-20T08:07:43.088Z,64.51
2022-08-20T08:10:16.425Z,63.29
2022-08-20T08:12:48.015Z,61.52
2022-08-20T08:15:18.299Z,59.34
2022-08-20T08:17:49.568Z,57.99
2022-08-20T08:20:19.408Z,57.65
2022-08-20T08:22:47.959Z,58.09
2022-08-20T08:25:17.450Z,58.74
2022-08-20T08:27:48.952Z,60.28
2022-08-20T08:30:17.968Z,60.96
2022-08-20T08:32:59.870Z,61.16
2022-08-20T08:35:33.167Z,61.55
2022-08-20T08:38:02.945Z,62.02
2022-08-20T08:40:33.994Z,61.40
2022-08-20T08:43:04.515Z,61.92
2022-08-20T08:45:43.810Z,62.79
2022-08-20T08:48:18.426Z,62.21
2022-08-20T08:50:54.660Z,62.87
2022-08-20T08:53:37.364Z,62.56
2022-08-20T08:56:09.764Z,62.43
2022-08-20T08:58:50.015Z,62.22
2022-08-20T09:01:54.721Z,62.93
2022-08-20T09:07:33.589Z,62.81
2022-08-20T09:10:13.952Z,62.96
2022-08-20T09:12:47.863Z,61.84
2022-08-20T09:15:18.477Z,62.29
2022-08-20T09:17:51.384Z,62.41
2022-08-20T09:23:25.786Z,63.54
2022-08-20T09:26:04.149Z,62.12
2022-08-20T09:28:41.548Z,64.39
2022-08-20T09:31:15.337Z,66.37
2022-08-20T09:33:49.948Z,66.38
2022-08-20T09:36:32.336Z,69.07
2022-08-20T09:39:15.060Z,68.25
2022-08-20T09:41:59.521Z,70.09
2022-08-20T09:44:31.762Z,68.74
2022-08-20T09:47:02.252Z,69.14
2022-08-20T09:49:30.975Z,67.23
2022-08-20T09:51:59.857Z,64.55
2022-08-20T09:54:30.298Z,64.06
2022-08-20T09:56:59.311Z,61.86
2022-08-20T09:59:30.715Z,56.35
2022-08-20T10:01:59.185Z,56.17
2022-08-20T10:04:28.768Z,54.30
2022-08-20T10:06:59.257Z,48.22
2022-08-20T10:09:32.117Z,48.75
2022-08-20T10:11:59.971Z,46.78
2022-08-20T10:14:27.970Z,44.63
2022-08-20T10:16:59.916Z,45.00
2022-08-20T10:19:30.760Z,47.00
2022-08-20T10:22:00.323Z,46.91
2022-08-20T10:24:31.777Z,48.46
2022-08-20T10:27:05.028Z,49.32
2022-08-20T10:29:37.900Z,51.28
2022-08-20T10:32:13.431Z,50.97
2022-08-20T10:34:42.444Z,51.41
2022-08-20T10:37:11.509Z,50.71
2022-08-20T10:39:41.196Z,50.67
2022-08-20T10:42:09.124Z,50.60
2022-08-20T10:44:37.138Z,50.92
2022-08-20T10:47:16.160Z,50.86
2022-08-20T10:49:46.034Z,52.03
2022-08-20T10:52:13.948Z,52.04
2022-08-20T10:54:43.530Z,51.64
2022-08-20T10:57:16.029Z,54.12
2022-08-20T10:59:45.642Z,54.62
2022-08-20T11:02:13.872Z,54.46
2022-08-20T11:04:42.484Z,55.82
2022-08-20T11:07:19.496Z,55.78
2022-08-20T11:09:50.554Z,53.88
2022-08-20T11:12:20.500Z,53.50
2022-08-20T11:14:50.086Z,52.47
2022-08-20T11:17:22.436Z,53.51
2022-08-20T11:19:50.739Z,53.10
2022-08-20T11:22:19.734Z,53.82
2022-08-20T11:24:49.345Z,60.19
2022-08-20T11:27:23.220Z,69.04
2022-08-20T11:29:51.788Z,84.23
2022-08-20T11:32:19.987Z,85.29
2022-08-20T11:34:47.898Z,88.70
2022-08-20T11:37:18.719Z,87.61
